Time;durP1;ratioP1;P1;durP2;ratioP2;P2;SDS_P1;SDS_P2;PMS_P1;PMS_P2;Temp;Humidity;BMP_temperature;BMP_pressure;BME280_temperature;BME280_humidity;BME280_pressure;Samples;Min_cycle;Max_cycle;Signal;HPM_P1;HPM_P2
2023/01/15 00:01:22;;;;;;;;;;;7.20;99.90;;;;;;5045395;28;19930;-81
2023/01/15 00:03:52;;;;;;;;;;;7.20;99.90;;;;;;5044206;28;19925;-81
2023/01/15 00:06:28;;;;;;;;;;;7.30;99.90;;;;;;5045651;28;19932;-81
2023/01/15 00:09:01;;;;;;;;;;;7.30;99.90;;;;;;5047753;28;20050;-81
2023/01/15 00:11:28;;;;;;;;;;;7.30;99.90;;;;;;5041706;28;19925;-81
2023/01/15 00:13:56;;;;;;;;;;;7.20;99.90;;;;;;5042934;28;19925;-81
2023/01/15 00:16:26;;;;;;;;;;;7.30;99.90;;;;;;5043923;28;19932;-81
2023/01/15 00:18:54;;;;;;;;;;;7.30;99.90;;;;;;5041891;28;19934;-81
2023/01/15 00:21:31;;;;;;;;;;;7.30;99.90;;;;;;5027584;28;19926;-81
2023/01/15 00:29:32;;;;;;;;;;;7.30;99.90;;;;;;5042385;28;21232;-81
2023/01/15 00:32:05;;;;;;;;;;;7.20;99.90;;;;;;5034992;28;19925;-81
2023/01/15 00:34:34;;;;;;;;;;;7.30;99.90;;;;;;5049987;28;19926;-82
2023/01/15 00:37:04;;;;;;;;;;;7.30;99.90;;;;;;5046890;28;19916;-81
2023/01/15 00:39:40;;;;;;;;;;;7.30;99.90;;;;;;5039915;28;19952;-82
2023/01/15 00:42:13;;;;;;;;;;;7.30;99.90;;;;;;5043245;28;19948;-81
2023/01/15 00:50:22;;;;;;;;;;;7.30;99.90;;;;;;4797164;26;19928;-82
2023/01/15 00:52:54;;;;;;;;;;;7.40;99.90;;;;;;5072786;28;19909;-81
2023/01/15 00:55:24;;;;;;;;;;;7.30;99.90;;;;;;5078258;28;19909;-82
2023/01/15 00:57:56;;;;;;;;;;;7.40;99.90;;;;;;5071046;28;19925;-82
2023/01/15 01:05:54;;;;;;;;;;;7.30;99.90;;;;;;5391643;22;19914;-81
2023/01/15 01:08:29;;;;;;;;;;;7.40;99.90;;;;;;4994446;28;19933;-81
2023/01/15 01:11:11;;;;;;;;;;;7.40;99.90;;;;;;4987352;28;19914;-82
2023/01/15 01:16:32;;;;;;;;;;;7.40;99.90;;;;;;5323404;22;19933;-82
2023/01/15 01:19:15;;;;;;;;;;;7.40;99.90;;;;;;5048217;28;19913;-82
2023/01/15 01:21:49;;;;;;;;;;;7.40;99.90;;;;;;5035649;28;19910;-82
2023/01/15 01:24:31;;;;;;;;;;;7.40;99.90;;;;;;5032291;28;19930;-82
2023/01/15 01:27:11;;;;;;;;;;;7.40;99.90;;;;;;5043498;28;19937;-83
2023/01/15 01:29:51;;;;;;;;;;;7.40;99.90;;;;;;5040581;28;19910;-82
2023/01/15 01:38:12;;;;;;;;;;;7.40;99.90;;;;;;5186622;23;19917;-82
2023/01/15 01:40:50;;;;;;;;;;;7.40;99.90;;;;;;5033270;28;19932;-81
2023/01/15 01:43:20;;;;;;;;;;;7.40;99.90;;;;;;5038824;28;19981;-82
2023/01/15 01:45:56;;;;;;;;;;;7.40;99.90;;;;;;5037786;28;19913;-81
2023/01/15 01:48:33;;;;;;;;;;;7.50;99.90;;;;;;5033985;28;19913;-81
2023/01/15 01:51:07;;;;;;;;;;;7.50;99.90;;;;;;5031616;28;19926;-82
2023/01/15 01:56:26;;;;;;;;;;;7.40;99.90;;;;;;5031203;28;19932;-81
2023/01/15 01:59:02;;;;;;;;;;;7.40;99.90;;;;;;5032401;28;19910;-81
2023/01/15 02:01:45;;;;;;;;;;;7.50;99.90;;;;;;5032718;28;19921;-81
2023/01/15 02:04:17;;;;;;;;;;;7.40;99.90;;;;;;5038253;28;19953;-82
2023/01/15 02:06:57;;;;;;;;;;;7.50;99.90;;;;;;5036674;28;19924;-82
2023/01/15 02:09:31;;;;;;;;;;;7.50;99.90;;;;;;5038345;28;19930;-81
2023/01/15 02:12:22;;;;;;;;;;;7.50;99.90;;;;;;5057377;28;19921;-82
2023/01/15 02:15:04;;;;;;;;;;;7.50;99.90;;;;;;5037297;28;19961;-81
2023/01/15 02:17:47;;;;;;;;;;;7.50;99.90;;;;;;5035598;28;19928;-81
2023/01/15 02:20:29;;;;;;;;;;;7.50;99.90;;;;;;5039404;28;19977;-81
2023/01/15 02:23:27;;;;;;;;;;;7.50;99.90;;;;;;5031285;28;19985;-82
2023/01/15 02:26:08;;;;;;;;;;;7.50;99.90;;;;;;5050122;28;19949;-81
2023/01/15 02:32:09;;;;;;;;;;;7.60;99.90;;;;;;5189164;23;19948;-82
2023/01/15 02:45:57;;;;;;;;;;;7.60;99.90;;;;;;5157648;22;19920;-81
2023/01/15 03:37:35;;;;;;;;;;;7.80;99.90;;;;;;5373130;22;19933;-81
2023/01/15 04:09:54;;;;;;;;;;;8.00;99.90;;;;;;5101968;22;19933;-82
2023/01/15 04:44:55;;;;;;;;;;;8.20;99.90;;;;;;5471457;22;19932;-80
2023/01/15 05:12:01;;;;;;;;;;;8.30;99.90;;;;;;5853061;22;20003;-81
2023/01/15 06:14:31;;;;;;;;;;;8.60;99.90;;;;;;5077411;22;20445;-80
2023/01/15 06:49:42;;;;;;;;;;;8.70;99.90;;;;;;5055737;28;19933;-80
2023/01/15 06:52:09;;;;;;;;;;;8.70;99.90;;;;;;5053859;28;20396;-80
2023/01/15 06:54:36;;;;;;;;;;;8.60;99.90;;;;;;5059275;28;19977;-79
2023/01/15 06:57:11;;;;;;;;;;;8.70;99.90;;;;;;5051843;28;19932;-79
2023/01/15 06:59:40;;;;;;;;;;;8.60;99.90;;;;;;5057088;28;19953;-79
2023/01/15 07:02:07;;;;;;;;;;;8.70;99.90;;;;;;5049822;28;19924;-82
2023/01/15 07:04:34;;;;;;;;;;;8.70;99.90;;;;;;5049141;28;20018;-82
2023/01/15 07:09:40;;;;;;;;;;;8.60;99.90;;;;;;5057998;28;20071;-80
2023/01/15 07:12:09;;;;;;;;;;;8.70;99.90;;;;;;5056090;28;19929;-80
2023/01/15 07:20:04;;;;;;;;;;;8.60;99.90;;;;;;5882267;23;19975;-80
2023/01/15 07:22:32;;;;;;;;;;;8.60;99.90;;;;;;5052694;28;19959;-79
2023/01/15 07:24:59;;;;;;;;;;;8.60;99.90;;;;;;5040090;28;19925;-82
2023/01/15 07:27:28;;;;;;;;;;;8.60;99.90;;;;;;5032011;28;19910;-80
2023/01/15 07:29:55;;;;;;;;;;;8.60;99.90;;;;;;5018440;28;19934;-80
2023/01/15 07:32:27;;;;;;;;;;;8.60;99.90;;;;;;5019322;28;19913;-80
2023/01/15 07:34:57;;;;;;;;;;;8.60;99.90;;;;;;5032466;28;19989;-80
2023/01/15 07:37:24;;;;;;;;;;;8.60;99.90;;;;;;5012387;28;19995;-80
2023/01/15 07:39:52;;;;;;;;;;;8.60;99.90;;;;;;5013690;28;19913;-80
2023/01/15 07:50:38;;;;;;;;;;;8.60;99.90;;;;;;5015808;28;19929;-80
2023/01/15 07:53:05;;;;;;;;;;;8.60;99.90;;;;;;5021477;28;19925;-80
2023/01/15 07:55:36;;;;;;;;;;;8.60;99.90;;;;;;5020775;28;19933;-80
2023/01/15 07:58:04;;;;;;;;;;;8.60;99.90;;;;;;5016349;28;19933;-80
2023/01/15 08:00:32;;;;;;;;;;;8.60;99.90;;;;;;5017444;28;20088;-80
2023/01/15 08:03:01;;;;;;;;;;;8.60;99.90;;;;;;5015110;28;19961;-80
2023/01/15 08:05:28;;;;;;;;;;;8.60;99.90;;;;;;5016324;28;19936;-80
2023/01/15 08:07:56;;;;;;;;;;;8.60;99.90;;;;;;5017256;28;19914;-80
2023/01/15 08:10:24;;;;;;;;;;;8.60;99.90;;;;;;5015992;28;19996;-80
2023/01/15 08:15:42;;;;;;;;;;;8.60;99.90;;;;;;5013046;28;19932;-80
2023/01/15 08:18:10;;;;;;;;;;;8.50;99.90;;;;;;5018381;28;20028;-80
2023/01/15 08:20:37;;;;;;;;;;;8.50;99.90;;;;;;5014041;28;19932;-80
2023/01/15 08:23:05;;;;;;;;;;;8.40;99.90;;;;;;5014532;28;19933;-80
2023/01/15 08:25:33;;;;;;;;;;;8.40;99.90;;;;;;5016687;28;19969;-80
2023/01/15 08:28:01;;;;;;;;;;;8.30;99.90;;;;;;5018132;28;19937;-80
2023/01/15 08:30:31;;;;;;;;;;;8.30;99.90;;;;;;5020044;28;19926;-80
2023/01/15 08:33:02;;;;;;;;;;;8.30;99.90;;;;;;5020991;28;19925;-80
2023/01/15 08:35:30;;;;;;;;;;;8.20;99.90;;;;;;5025328;28;19933;-80
2023/01/15 08:38:06;;;;;;;;;;;8.20;99.90;;;;;;5016243;28;19959;-80
2023/01/15 08:40:35;;;;;;;;;;;8.20;99.90;;;;;;5022485;28;19928;-80
2023/01/15 08:43:05;;;;;;;;;;;8.10;99.90;;;;;;5020841;28;20014;-80
2023/01/15 09:08:44;;;;;;;;;;;7.80;99.90;;;;;;5037178;23;19925;-80
2023/01/15 09:11:12;;;;;;;;;;;7.80;99.90;;;;;;5022095;28;19967;-80
2023/01/15 09:13:39;;;;;;;;;;;7.80;99.90;;;;;;5025158;28;19921;-80
2023/01/15 09:16:08;;;;;;;;;;;7.80;99.90;;;;;;5026129;28;19988;-80
2023/01/15 09:18:37;;;;;;;;;;;7.80;99.90;;;;;;5045009;28;19933;-80
2023/01/15 09:21:05;;;;;;;;;;;7.70;99.90;;;;;;5046125;28;19960;-79
2023/01/15 09:23:33;;;;;;;;;;;7.70;99.90;;;;;;5044544;28;19961;-80
2023/01/15 09:26:06;;;;;;;;;;;7.70;99.90;;;;;;5040859;28;20147;-80
2023/01/15 09:37:24;;;;;;;;;;;7.60;99.90;;;;;;5113770;22;19916;-80
2023/01/15 09:39:52;;;;;;;;;;;7.50;99.90;;;;;;5047842;28;19933;-80
2023/01/15 09:42:31;;;;;;;;;;;7.50;99.90;;;;;;5068415;28;19972;-80
2023/01/15 09:45:10;;;;;;;;;;;7.50;99.90;;;;;;5067692;28;19925;-80
2023/01/15 09:47:40;;;;;;;;;;;7.50;99.90;;;;;;5068648;28;19967;-80
2023/01/15 09:50:21;;;;;;;;;;;7.50;99.90;;;;;;5070458;28;19968;-79
2023/01/15 09:52:59;;;;;;;;;;;7.40;99.90;;;;;;5161103;22;19976;-79
2023/01/15 09:58:09;;;;;;;;;;;7.40;99.90;;;;;;5082616;28;19912;-80
2023/01/15 10:17:45;;;;;;;;;;;7.20;99.90;;;;;;4978565;28;19957;-81
2023/01/15 10:33:45;;;;;;;;;;;7.10;99.90;;;;;;4995889;28;19981;-81
2023/01/15 10:39:51;;;;;;;;;;;7.10;99.90;;;;;;4975021;28;19929;-81
2023/01/15 10:49:16;;;;;;;;;;;7.10;99.90;;;;;;4884325;29;20033;-80
2023/01/15 12:52:23;;;;;;;;;;;6.40;99.90;;;;;;5555737;22;19940;-76
2023/01/15 12:54:55;;;;;;;;;;;6.40;99.90;;;;;;5011455;28;20465;-79
2023/01/15 13:03:01;;;;;;;;;;;6.40;99.90;;;;;;5207298;23;19948;-80
2023/01/15 13:11:36;;;;;;;;;;;6.30;99.90;;;;;;5027832;28;19932;-81
2023/01/15 13:17:13;;;;;;;;;;;6.30;99.90;;;;;;5011904;28;20003;-81
2023/01/15 13:19:51;;;;;;;;;;;6.30;99.90;;;;;;5017750;28;20407;-80
2023/01/15 13:22:22;;;;;;;;;;;6.30;99.90;;;;;;5015759;28;19929;-79
2023/01/15 13:25:45;;;;;;;;;;;6.30;99.90;;;;;;5007579;28;20023;-80
2023/01/15 13:34:58;;;;;;;;;;;6.20;99.90;;;;;;5034332;28;19931;-80
2023/01/15 13:44:24;;;;;;;;;;;6.10;99.90;;;;;;5696307;22;19947;-80
2023/01/15 13:47:08;;;;;;;;;;;6.10;99.90;;;;;;5097802;28;19947;-82
2023/01/15 13:49:47;;;;;;;;;;;6.10;99.90;;;;;;5088724;28;19938;-81
2023/01/15 13:52:26;;;;;;;;;;;6.10;99.90;;;;;;5063957;28;19924;-80
2023/01/15 13:58:54;;;;;;;;;;;6.10;99.90;;;;;;5163447;22;20920;-81
2023/01/15 14:04:46;;;;;;;;;;;6.00;99.90;;;;;;5474284;22;19940;-80
2023/01/15 14:24:04;;;;;;;;;;;5.90;99.90;;;;;;5321861;22;19916;-80
2023/01/15 14:33:22;;;;;;;;;;;5.90;99.90;;;;;;5061026;28;20022;-80
2023/01/15 14:39:24;;;;;;;;;;;5.80;99.90;;;;;;5427109;22;19939;-80
2023/01/15 16:11:26;;;;;;;;;;;5.40;99.90;;;;;;6090417;22;20303;-81
2023/01/15 16:20:42;;;;;;;;;;;5.30;99.90;;;;;;5551565;22;20021;-80
2023/01/15 16:23:19;;;;;;;;;;;5.30;99.90;;;;;;5113358;28;20011;-80
2023/01/15 16:28:58;;;;;;;;;;;5.30;99.90;;;;;;5084016;28;20452;-79
2023/01/15 16:31:27;;;;;;;;;;;5.30;99.90;;;;;;5082531;28;19932;-80
2023/01/15 16:33:55;;;;;;;;;;;5.30;99.90;;;;;;5080584;28;20387;-82
2023/01/15 16:36:22;;;;;;;;;;;5.30;99.90;;;;;;5062506;28;19935;-80
2023/01/15 16:38:51;;;;;;;;;;;5.30;99.90;;;;;;5061722;28;19928;-80
2023/01/15 16:41:26;;;;;;;;;;;5.30;99.90;;;;;;5075094;28;19924;-80
2023/01/15 16:43:56;;;;;;;;;;;5.20;99.90;;;;;;5067445;28;20540;-79
2023/01/15 16:46:36;;;;;;;;;;;5.20;99.90;;;;;;5079589;28;19947;-80
2023/01/15 16:49:19;;;;;;;;;;;5.20;99.90;;;;;;5088617;28;19962;-81
2023/01/15 16:51:49;;;;;;;;;;;5.20;99.90;;;;;;5078019;28;19924;-80
2023/01/15 16:54:36;;;;;;;;;;;5.20;99.90;;;;;;5083921;28;19993;-80
2023/01/15 16:57:05;;;;;;;;;;;5.20;99.90;;;;;;5071346;28;19932;-80
2023/01/15 16:59:54;;;;;;;;;;;5.20;99.90;;;;;;5081515;28;19924;-80
2023/01/15 17:02:28;;;;;;;;;;;5.10;99.90;;;;;;5088666;28;19947;-80
2023/01/15 17:04:55;;;;;;;;;;;5.10;99.90;;;;;;5084307;28;19947;-80
2023/01/15 17:07:32;;;;;;;;;;;5.10;99.90;;;;;;5083437;28;19955;-80
2023/01/15 17:10:00;;;;;;;;;;;5.10;99.90;;;;;;5067759;28;19964;-79
2023/01/15 17:12:33;;;;;;;;;;;5.10;99.90;;;;;;5080875;28;19933;-80
2023/01/15 17:15:28;;;;;;;;;;;5.10;99.90;;;;;;5068604;28;19955;-80
2023/01/15 17:17:58;;;;;;;;;;;;;;;;;;5080030;28;20381;-80
2023/01/15 17:20:26;;;;;;;;;;;5.00;99.90;;;;;;5086304;28;19925;-80
2023/01/15 17:41:11;;;;;;;;;;;4.90;99.90;;;;;;4891668;29;19930;-80
2023/01/15 17:43:38;;;;;;;;;;;4.90;99.90;;;;;;4962378;28;20011;-79
2023/01/15 17:46:08;;;;;;;;;;;4.90;99.90;;;;;;5023419;28;19925;-80
2023/01/15 17:48:38;;;;;;;;;;;4.90;99.90;;;;;;5063716;28;19944;-80
2023/01/15 17:51:06;;;;;;;;;;;4.90;99.90;;;;;;5081415;28;19984;-82
2023/01/15 17:53:37;;;;;;;;;;;4.80;99.90;;;;;;5077774;28;19929;-80
2023/01/15 18:07:11;;;;;;;;;;;4.80;99.90;;;;;;5079958;28;19926;-81
2023/01/15 18:09:39;;;;;;;;;;;4.70;99.90;;;;;;5079054;28;19924;-79
2023/01/15 18:12:09;;;;;;;;;;;4.80;99.90;;;;;;5071605;28;19932;-80
2023/01/15 18:14:39;;;;;;;;;;;4.70;99.90;;;;;;5072303;28;19943;-80
2023/01/15 18:17:07;;;;;;;;;;;4.70;99.90;;;;;;5079419;28;19971;-80
2023/01/15 18:19:34;;;;;;;;;;;4.70;99.90;;;;;;5077129;28;20553;-80
2023/01/15 18:22:01;;;;;;;;;;;4.70;99.90;;;;;;5077434;28;19932;-79
2023/01/15 18:24:28;;;;;;;;;;;4.70;99.90;;;;;;5071601;28;19983;-80
2023/01/15 18:26:55;;;;;;;;;;;4.70;99.90;;;;;;5072329;28;19929;-80
2023/01/15 18:29:27;;;;;;;;;;;4.70;99.90;;;;;;5068458;28;19928;-80
2023/01/15 18:32:11;;;;;;;;;;;4.60;99.90;;;;;;5068182;28;20421;-80
2023/01/15 18:34:42;;;;;;;;;;;4.60;99.90;;;;;;5071162;28;19983;-79
2023/01/15 18:37:12;;;;;;;;;;;4.60;99.90;;;;;;5065517;28;20087;-77
2023/01/15 18:39:47;;;;;;;;;;;4.60;99.90;;;;;;5067841;28;19935;-79
2023/01/15 18:48:02;;;;;;;;;;;4.60;99.90;;;;;;5075456;28;19908;-80
2023/01/15 18:50:37;;;;;;;;;;;4.50;99.90;;;;;;5074527;28;19929;-81
2023/01/15 18:53:04;;;;;;;;;;;4.50;99.90;;;;;;5071905;28;20045;-79
2023/01/15 18:55:31;;;;;;;;;;;4.50;99.90;;;;;;5045095;28;19924;-77
2023/01/15 18:58:02;;;;;;;;;;;4.50;99.90;;;;;;5049171;28;19925;-78
2023/01/15 19:03:09;;;;;;;;;;;4.50;99.90;;;;;;5490302;22;19931;-80
2023/01/15 19:08:08;;;;;;;;;;;4.40;99.90;;;;;;5034937;28;20877;-80
2023/01/15 19:10:40;;;;;;;;;;;4.40;99.90;;;;;;5045594;28;19933;-80
2023/01/15 19:13:07;;;;;;;;;;;4.40;99.90;;;;;;5049611;28;19925;-80
2023/01/15 19:21:09;;;;;;;;;;;4.40;99.90;;;;;;5025299;28;19932;-80
2023/01/15 19:23:36;;;;;;;;;;;4.40;99.90;;;;;;5031600;28;19925;-80
2023/01/15 19:26:09;;;;;;;;;;;4.30;99.90;;;;;;5390325;22;19992;-79
2023/01/15 19:28:39;;;;;;;;;;;4.30;99.90;;;;;;5047660;28;19986;-78
2023/01/15 19:33:55;;;;;;;;;;;4.30;99.90;;;;;;5048089;28;19921;-77
2023/01/15 19:36:25;;;;;;;;;;;4.30;99.90;;;;;;5045028;28;19924;-79
2023/01/15 19:38:52;;;;;;;;;;;4.30;99.90;;;;;;5038187;28;19913;-80
2023/01/15 19:52:40;;;;;;;;;;;4.20;99.90;;;;;;5060201;28;19925;-80
2023/01/15 19:55:09;;;;;;;;;;;4.20;99.90;;;;;;5037440;28;19929;-79
2023/01/15 19:57:36;;;;;;;;;;;4.20;99.90;;;;;;5046210;28;19927;-77
2023/01/15 20:00:03;;;;;;;;;;;4.20;99.90;;;;;;5031413;28;20023;-79
2023/01/15 20:02:32;;;;;;;;;;;4.20;99.90;;;;;;5049088;28;20020;-80
2023/01/15 20:05:01;;;;;;;;;;;4.20;99.90;;;;;;5033192;28;19909;-79
2023/01/15 20:07:28;;;;;;;;;;;4.20;99.90;;;;;;5062065;28;19928;-80
2023/01/15 20:09:55;;;;;;;;;;;4.10;99.90;;;;;;5062776;28;19929;-80
2023/01/15 20:15:08;;;;;;;;;;;4.10;99.90;;;;;;5061308;28;19929;-80
2023/01/15 20:17:35;;;;;;;;;;;4.10;99.90;;;;;;5041677;28;20670;-80
2023/01/15 20:20:04;;;;;;;;;;;4.10;99.90;;;;;;5035803;28;19987;-80
2023/01/15 20:22:33;;;;;;;;;;;4.10;99.90;;;;;;5056265;28;19992;-80
2023/01/15 20:25:01;;;;;;;;;;;4.10;99.90;;;;;;5040791;28;19925;-79
2023/01/15 20:27:34;;;;;;;;;;;4.10;99.90;;;;;;5055972;28;19952;-80
2023/01/15 20:30:01;;;;;;;;;;;4.00;99.90;;;;;;5059907;28;19947;-80
2023/01/15 20:32:28;;;;;;;;;;;4.00;99.90;;;;;;5041354;28;19928;-80
2023/01/15 20:34:55;;;;;;;;;;;4.10;99.90;;;;;;5060472;28;19936;-80
2023/01/15 20:37:24;;;;;;;;;;;4.00;99.90;;;;;;5057312;28;19956;-80
2023/01/15 20:39:52;;;;;;;;;;;4.00;99.90;;;;;;5057896;28;19925;-80
2023/01/15 20:45:16;;;;;;;;;;;4.00;99.90;;;;;;5061254;28;20449;-81
2023/01/15 20:50:28;;;;;;;;;;;3.90;99.90;;;;;;5065864;28;19928;-80
2023/01/15 21:10:30;;;;;;;;;;;3.90;99.90;;;;;;5834266;22;20058;-80
2023/01/15 21:13:00;;;;;;;;;;;3.80;99.90;;;;;;5076308;28;19924;-80
2023/01/15 21:15:28;;;;;;;;;;;3.80;99.90;;;;;;5090366;28;19951;-80
2023/01/15 21:17:56;;;;;;;;;;;3.80;99.90;;;;;;5074776;28;19964;-81
2023/01/15 21:20:23;;;;;;;;;;;3.80;99.90;;;;;;5056686;28;19952;-81
2023/01/15 21:22:56;;;;;;;;;;;3.80;99.90;;;;;;5066612;28;19971;-80
2023/01/15 21:25:24;;;;;;;;;;;3.80;99.90;;;;;;5054318;28;19921;-81
2023/01/15 21:27:56;;;;;;;;;;;3.80;99.90;;;;;;5071009;28;19955;-80
2023/01/15 21:30:24;;;;;;;;;;;3.80;99.90;;;;;;5050873;28;19964;-81
2023/01/15 21:32:52;;;;;;;;;;;3.80;99.90;;;;;;5050138;28;20303;-80
2023/01/15 21:35:20;;;;;;;;;;;3.70;99.90;;;;;;5068088;28;19960;-82
2023/01/15 21:37:47;;;;;;;;;;;3.70;99.90;;;;;;5068609;28;19924;-80
2023/01/15 21:40:15;;;;;;;;;;;3.80;99.90;;;;;;5047122;28;19931;-80
2023/01/15 21:45:28;;;;;;;;;;;3.80;99.90;;;;;;5066834;28;19932;-81
2023/01/15 21:47:56;;;;;;;;;;;3.80;99.90;;;;;;5065997;28;19931;-80
2023/01/15 21:50:24;;;;;;;;;;;3.80;99.90;;;;;;5069650;28;19925;-80
2023/01/15 21:52:52;;;;;;;;;;;3.70;99.90;;;;;;5064185;28;19931;-80
